sensor_id;sensor_type;location;lat;lon;timestamp;temperature;humidity
16408;DHT22;8313;49.894;8.084;2023-07-20T00:02:00;21.10;81.60
16408;DHT22;8313;49.894;8.084;2023-07-20T00:04:28;20.80;82.20
16408;DHT22;8313;49.894;8.084;2023-07-20T00:06:53;20.80;82.50
16408;DHT22;8313;49.894;8.084;2023-07-20T00:09:19;20.80;82.40
16408;DHT22;8313;49.894;8.084;2023-07-20T00:11:50;20.40;83.20
16408;DHT22;8313;49.894;8.084;2023-07-20T00:14:17;20.20;84.00
16408;DHT22;8313;49.894;8.084;2023-07-20T00:16:45;20.30;83.80
16408;DHT22;8313;49.894;8.084;2023-07-20T00:19:12;20.10;84.10
16408;DHT22;8313;49.894;8.084;2023-07-20T00:21:38;20.00;84.60
16408;DHT22;8313;49.894;8.084;2023-07-20T00:24:06;19.80;85.10
16408;DHT22;8313;49.894;8.084;2023-07-20T00:26:31;20.00;84.90
16408;DHT22;8313;49.894;8.084;2023-07-20T00:28:57;20.10;84.80
16408;DHT22;8313;49.894;8.084;2023-07-20T00:31:23;20.20;84.60
16408;DHT22;8313;49.894;8.084;2023-07-20T00:33:48;20.20;84.00
16408;DHT22;8313;49.894;8.084;2023-07-20T00:36:14;20.20;84.00
16408;DHT22;8313;49.894;8.084;2023-07-20T00:38:42;20.00;84.40
16408;DHT22;8313;49.894;8.084;2023-07-20T00:41:08;20.20;84.20
16408;DHT22;8313;49.894;8.084;2023-07-20T00:43:34;20.20;83.80
16408;DHT22;8313;49.894;8.084;2023-07-20T00:46:00;20.20;83.60
16408;DHT22;8313;49.894;8.084;2023-07-20T00:48:25;20.20;84.00
16408;DHT22;8313;49.894;8.084;2023-07-20T00:50:51;20.40;83.70
16408;DHT22;8313;49.894;8.084;2023-07-20T00:53:17;20.50;83.30
16408;DHT22;8313;49.894;8.084;2023-07-20T00:55:44;20.60;83.20
16408;DHT22;8313;49.894;8.084;2023-07-20T00:58:09;20.60;82.80
16408;DHT22;8313;49.894;8.084;2023-07-20T01:00:35;20.60;82.70
16408;DHT22;8313;49.894;8.084;2023-07-20T01:03:01;20.70;82.80
16408;DHT22;8313;49.894;8.084;2023-07-20T01:08:37;20.70;82.20
16408;DHT22;8313;49.894;8.084;2023-07-20T01:11:23;20.70;82.00
16408;DHT22;8313;49.894;8.084;2023-07-20T01:13:53;20.70;82.20
16408;DHT22;8313;49.894;8.084;2023-07-20T01:16:20;20.50;82.30
16408;DHT22;8313;49.894;8.084;2023-07-20T01:18:45;20.30;82.80
16408;DHT22;8313;49.894;8.084;2023-07-20T01:21:22;20.10;83.60
16408;DHT22;8313;49.894;8.084;2023-07-20T01:29:22;20.30;83.40
16408;DHT22;8313;49.894;8.084;2023-07-20T01:31:57;20.30;83.20
16408;DHT22;8313;49.894;8.084;2023-07-20T01:34:23;20.40;83.10
16408;DHT22;8313;49.894;8.084;2023-07-20T01:36:50;20.30;83.00
16408;DHT22;8313;49.894;8.084;2023-07-20T01:39:19;20.30;83.00
16408;DHT22;8313;49.894;8.084;2023-07-20T01:41:46;20.20;83.20
16408;DHT22;8313;49.894;8.084;2023-07-20T01:44:12;20.10;83.50
16408;DHT22;8313;49.894;8.084;2023-07-20T01:46:38;20.10;83.40
16408;DHT22;8313;49.894;8.084;2023-07-20T01:49:04;20.00;83.30
16408;DHT22;8313;49.894;8.084;2023-07-20T01:51:31;19.80;83.90
16408;DHT22;8313;49.894;8.084;2023-07-20T01:53:56;19.70;84.30
16408;DHT22;8313;49.894;8.084;2023-07-20T01:56:22;19.50;84.80
16408;DHT22;8313;49.894;8.084;2023-07-20T01:58:48;19.60;85.90
16408;DHT22;8313;49.894;8.084;2023-07-20T02:01:13;19.50;85.20
16408;DHT22;8313;49.894;8.084;2023-07-20T02:03:39;19.50;85.50
16408;DHT22;8313;49.894;8.084;2023-07-20T02:06:05;19.70;85.30
16408;DHT22;8313;49.894;8.084;2023-07-20T02:08:30;19.80;84.80
16408;DHT22;8313;49.894;8.084;2023-07-20T02:10:56;19.80;84.90
16408;DHT22;8313;49.894;8.084;2023-07-20T02:13:22;19.70;85.00
16408;DHT22;8313;49.894;8.084;2023-07-20T02:15:48;19.70;85.30
16408;DHT22;8313;49.894;8.084;2023-07-20T02:18:15;19.70;85.00
16408;DHT22;8313;49.894;8.084;2023-07-20T02:20:41;19.80;84.70
16408;DHT22;8313;49.894;8.084;2023-07-20T02:23:07;19.90;84.30
16408;DHT22;8313;49.894;8.084;2023-07-20T02:25:33;20.00;84.00
16408;DHT22;8313;49.894;8.084;2023-07-20T02:27:59;20.00;84.10
16408;DHT22;8313;49.894;8.084;2023-07-20T02:30:25;20.00;84.20
16408;DHT22;8313;49.894;8.084;2023-07-20T02:32:51;20.00;83.80
16408;DHT22;8313;49.894;8.084;2023-07-20T02:35:17;20.00;83.70
16408;DHT22;8313;49.894;8.084;2023-07-20T02:37:42;20.00;83.60
16408;DHT22;8313;49.894;8.084;2023-07-20T02:40:08;20.10;83.50
16408;DHT22;8313;49.894;8.084;2023-07-20T02:42:35;20.10;83.60
16408;DHT22;8313;49.894;8.084;2023-07-20T02:45:02;20.10;83.30
16408;DHT22;8313;49.894;8.084;2023-07-20T02:47:29;20.00;83.20
16408;DHT22;8313;49.894;8.084;2023-07-20T02:49:54;19.90;83.60
16408;DHT22;8313;49.894;8.084;2023-07-20T02:52:20;19.80;83.80
16408;DHT22;8313;49.894;8.084;2023-07-20T02:54:46;19.70;84.70
16408;DHT22;8313;49.894;8.084;2023-07-20T02:57:11;19.70;84.50
16408;DHT22;8313;49.894;8.084;2023-07-20T02:59:38;19.70;84.70
16408;DHT22;8313;49.894;8.084;2023-07-20T03:02:04;19.70;84.90
16408;DHT22;8313;49.894;8.084;2023-07-20T03:04:29;19.60;85.30
16408;DHT22;8313;49.894;8.084;2023-07-20T03:06:55;19.60;85.00
16408;DHT22;8313;49.894;8.084;2023-07-20T03:09:20;19.60;84.80
16408;DHT22;8313;49.894;8.084;2023-07-20T03:11:47;19.70;84.80
16408;DHT22;8313;49.894;8.084;2023-07-20T03:14:13;19.70;84.70
16408;DHT22;8313;49.894;8.084;2023-07-20T03:16:39;19.70;84.80
16408;DHT22;8313;49.894;8.084;2023-07-20T03:19:05;19.60;84.60
16408;DHT22;8313;49.894;8.084;2023-07-20T03:21:30;19.60;84.60
16408;DHT22;8313;49.894;8.084;2023-07-20T03:23:58;19.50;85.10
16408;DHT22;8313;49.894;8.084;2023-07-20T03:26:24;19.40;85.30
16408;DHT22;8313;49.894;8.084;2023-07-20T03:28:50;19.40;85.70
16408;DHT22;8313;49.894;8.084;2023-07-20T03:31:15;19.40;85.90
16408;DHT22;8313;49.894;8.084;2023-07-20T03:33:41;19.30;85.70
16408;DHT22;8313;49.894;8.084;2023-07-20T03:36:07;19.40;85.90
16408;DHT22;8313;49.894;8.084;2023-07-20T03:38:33;19.20;86.40
16408;DHT22;8313;49.894;8.084;2023-07-20T03:41:00;19.20;86.80
16408;DHT22;8313;49.894;8.084;2023-07-20T03:43:27;19.00;87.20
16408;DHT22;8313;49.894;8.084;2023-07-20T03:45:53;19.00;87.90
16408;DHT22;8313;49.894;8.084;2023-07-20T03:48:22;19.00;87.40
16408;DHT22;8313;49.894;8.084;2023-07-20T03:50:49;18.90;87.30
16408;DHT22;8313;49.894;8.084;2023-07-20T03:53:15;18.90;88.20
16408;DHT22;8313;49.894;8.084;2023-07-20T03:55:45;18.90;88.00
16408;DHT22;8313;49.894;8.084;2023-07-20T03:58:12;18.90;87.40
16408;DHT22;8313;49.894;8.084;2023-07-20T04:00:38;18.90;87.70
16408;DHT22;8313;49.894;8.084;2023-07-20T04:03:04;18.70;88.00
16408;DHT22;8313;49.894;8.084;2023-07-20T04:05:30;18.70;88.30
16408;DHT22;8313;49.894;8.084;2023-07-20T04:07:55;18.70;88.50
16408;DHT22;8313;49.894;8.084;2023-07-20T04:10:21;18.80;88.50
16408;DHT22;8313;49.894;8.084;2023-07-20T04:12:51;18.70;89.40
16408;DHT22;8313;49.894;8.084;2023-07-20T04:15:17;18.60;89.10
16408;DHT22;8313;49.894;8.084;2023-07-20T04:17:42;18.60;90.00
16408;DHT22;8313;49.894;8.084;2023-07-20T04:20:10;18.60;90.00
16408;DHT22;8313;49.894;8.084;2023-07-20T04:22:35;18.60;90.10
16408;DHT22;8313;49.894;8.084;2023-07-20T04:25:03;18.60;90.20
16408;DHT22;8313;49.894;8.084;2023-07-20T04:27:29;18.60;90.20
16408;DHT22;8313;49.894;8.084;2023-07-20T04:29:57;18.60;90.30
16408;DHT22;8313;49.894;8.084;2023-07-20T04:32:25;18.40;90.70
16408;DHT22;8313;49.894;8.084;2023-07-20T04:34:51;18.50;90.80
16408;DHT22;8313;49.894;8.084;2023-07-20T04:37:17;18.30;91.00
16408;DHT22;8313;49.894;8.084;2023-07-20T04:39:44;18.30;91.40
16408;DHT22;8313;49.894;8.084;2023-07-20T04:42:11;18.40;91.30
16408;DHT22;8313;49.894;8.084;2023-07-20T04:44:36;18.40;91.50
16408;DHT22;8313;49.894;8.084;2023-07-20T04:47:02;18.30;91.90
16408;DHT22;8313;49.894;8.084;2023-07-20T04:49:31;18.30;92.10
16408;DHT22;8313;49.894;8.084;2023-07-20T04:51:56;18.30;91.90
16408;DHT22;8313;49.894;8.084;2023-07-20T04:54:22;18.40;91.90
16408;DHT22;8313;49.894;8.084;2023-07-20T04:56:48;18.50;91.50
16408;DHT22;8313;49.894;8.084;2023-07-20T04:59:14;18.50;91.60
16408;DHT22;8313;49.894;8.084;2023-07-20T05:01:40;18.60;91.90
16408;DHT22;8313;49.894;8.084;2023-07-20T05:04:06;18.50;92.00
16408;DHT22;8313;49.894;8.084;2023-07-20T05:06:32;18.40;92.50
16408;DHT22;8313;49.894;8.084;2023-07-20T05:08:59;18.20;92.90
16408;DHT22;8313;49.894;8.084;2023-07-20T05:11:25;18.20;93.10
16408;DHT22;8313;49.894;8.084;2023-07-20T05:13:50;18.30;93.00
16408;DHT22;8313;49.894;8.084;2023-07-20T05:16:16;18.40;92.70
16408;DHT22;8313;49.894;8.084;2023-07-20T05:18:42;18.50;92.70
16408;DHT22;8313;49.894;8.084;2023-07-20T05:21:08;18.50;92.90
16408;DHT22;8313;49.894;8.084;2023-07-20T05:23:34;18.60;92.90
16408;DHT22;8313;49.894;8.084;2023-07-20T05:26:01;18.60;92.90
16408;DHT22;8313;49.894;8.084;2023-07-20T05:28:26;18.60;92.90
16408;DHT22;8313;49.894;8.084;2023-07-20T05:30:53;18.70;92.90
16408;DHT22;8313;49.894;8.084;2023-07-20T05:33:22;18.60;93.20
16408;DHT22;8313;49.894;8.084;2023-07-20T05:35:48;18.70;93.20
16408;DHT22;8313;49.894;8.084;2023-07-20T05:38:14;18.80;93.00
16408;DHT22;8313;49.894;8.084;2023-07-20T05:40:44;18.80;93.10
16408;DHT22;8313;49.894;8.084;2023-07-20T05:43:10;18.50;94.20
16408;DHT22;8313;49.894;8.084;2023-07-20T05:45:36;18.20;95.00
16408;DHT22;8313;49.894;8.084;2023-07-20T05:48:02;18.00;95.60
16408;DHT22;8313;49.894;8.084;2023-07-20T05:50:28;18.20;95.70
16408;DHT22;8313;49.894;8.084;2023-07-20T05:52:54;18.40;95.30
16408;DHT22;8313;49.894;8.084;2023-07-20T05:55:20;18.50;95.00
16408;DHT22;8313;49.894;8.084;2023-07-20T05:57:46;18.50;95.60
16408;DHT22;8313;49.894;8.084;2023-07-20T06:00:13;18.30;96.50
16408;DHT22;8313;49.894;8.084;2023-07-20T06:02:41;18.30;96.40
16408;DHT22;8313;49.894;8.084;2023-07-20T06:05:07;18.30;97.20
16408;DHT22;8313;49.894;8.084;2023-07-20T06:07:37;18.20;97.30
16408;DHT22;8313;49.894;8.084;2023-07-20T06:10:04;18.30;97.30
16408;DHT22;8313;49.894;8.084;2023-07-20T06:12:31;18.40;97.50
16408;DHT22;8313;49.894;8.084;2023-07-20T06:14:56;18.50;97.20
16408;DHT22;8313;49.894;8.084;2023-07-20T06:17:22;18.70;97.10
16408;DHT22;8313;49.894;8.084;2023-07-20T06:19:48;18.60;97.40
16408;DHT22;8313;49.894;8.084;2023-07-20T06:22:13;18.60;97.60
16408;DHT22;8313;49.894;8.084;2023-07-20T06:24:39;18.50;98.20
16408;DHT22;8313;49.894;8.084;2023-07-20T06:27:05;18.60;98.20
16408;DHT22;8313;49.894;8.084;2023-07-20T06:29:31;18.80;97.50
16408;DHT22;8313;49.894;8.084;2023-07-20T06:31:57;18.80;97.80
16408;DHT22;8313;49.894;8.084;2023-07-20T06:34:22;18.80;97.80
16408;DHT22;8313;49.894;8.084;2023-07-20T06:36:48;18.80;98.30
16408;DHT22;8313;49.894;8.084;2023-07-20T06:39:14;18.90;98.20
16408;DHT22;8313;49.894;8.084;2023-07-20T06:41:39;18.90;98.10
16408;DHT22;8313;49.894;8.084;2023-07-20T06:44:05;19.00;98.40
16408;DHT22;8313;49.894;8.084;2023-07-20T06:46:31;19.00;98.50
16408;DHT22;8313;49.894;8.084;2023-07-20T06:48:56;19.10;98.20
16408;DHT22;8313;49.894;8.084;2023-07-20T06:51:22;19.10;98.20
16408;DHT22;8313;49.894;8.084;2023-07-20T06:53:48;19.10;98.70
16408;DHT22;8313;49.894;8.084;2023-07-20T06:56:14;19.10;98.20
16408;DHT22;8313;49.894;8.084;2023-07-20T06:58:39;19.20;98.50
16408;DHT22;8313;49.894;8.084;2023-07-20T07:01:08;19.30;98.10
16408;DHT22;8313;49.894;8.084;2023-07-20T07:03:34;19.40;97.90
16408;DHT22;8313;49.894;8.084;2023-07-20T07:06:00;19.60;98.10
16408;DHT22;8313;49.894;8.084;2023-07-20T07:08:26;19.60;97.90
16408;DHT22;8313;49.894;8.084;2023-07-20T07:10:52;19.70;98.00
16408;DHT22;8313;49.894;8.084;2023-07-20T07:13:18;19.80;97.60
16408;DHT22;8313;49.894;8.084;2023-07-20T07:15:44;19.90;97.80
16408;DHT22;8313;49.894;8.084;2023-07-20T07:18:10;19.90;97.90
16408;DHT22;8313;49.894;8.084;2023-07-20T07:20:35;19.90;97.80
16408;DHT22;8313;49.894;8.084;2023-07-20T07:23:01;20.00;97.40
16408;DHT22;8313;49.894;8.084;2023-07-20T07:25:27;20.20;97.30
16408;DHT22;8313;49.894;8.084;2023-07-20T07:27:53;20.30;97.10
16408;DHT22;8313;49.894;8.084;2023-07-20T07:30:19;20.40;96.70
16408;DHT22;8313;49.894;8.084;2023-07-20T07:32:45;20.50;96.60
16408;DHT22;8313;49.894;8.084;2023-07-20T07:35:11;20.40;97.00
16408;DHT22;8313;49.894;8.084;2023-07-20T07:37:37;20.40;97.50
16408;DHT22;8313;49.894;8.084;2023-07-20T07:40:04;20.40;97.20
16408;DHT22;8313;49.894;8.084;2023-07-20T07:42:31;20.50;96.80
16408;DHT22;8313;49.894;8.084;2023-07-20T07:44:57;20.60;96.40
16408;DHT22;8313;49.894;8.084;2023-07-20T07:47:23;20.80;96.20
16408;DHT22;8313;49.894;8.084;2023-07-20T07:49:48;20.80;96.20
16408;DHT22;8313;49.894;8.084;2023-07-20T07:52:15;20.80;96.10
16408;DHT22;8313;49.894;8.084;2023-07-20T07:54:41;20.90;96.10
16408;DHT22;8313;49.894;8.084;2023-07-20T07:57:06;21.00;96.00
16408;DHT22;8313;49.894;8.084;2023-07-20T07:59:32;21.10;96.00
16408;DHT22;8313;49.894;8.084;2023-07-20T08:02:04;21.10;95.50
16408;DHT22;8313;49.894;8.084;2023-07-20T08:04:30;21.10;95.30
16408;DHT22;8313;49.894;8.084;2023-07-20T08:06:56;21.20;95.30
16408;DHT22;8313;49.894;8.084;2023-07-20T08:09:21;21.30;95.20
16408;DHT22;8313;49.894;8.084;2023-07-20T08:11:47;21.40;95.20
16408;DHT22;8313;49.894;8.084;2023-07-20T08:14:13;21.50;95.00
16408;DHT22;8313;49.894;8.084;2023-07-20T08:16:39;21.50;94.70
16408;DHT22;8313;49.894;8.084;2023-07-20T08:19:05;21.60;94.80
16408;DHT22;8313;49.894;8.084;2023-07-20T08:21:30;21.80;95.10
16408;DHT22;8313;49.894;8.084;2023-07-20T08:23:56;22.00;95.00
16408;DHT22;8313;49.894;8.084;2023-07-20T08:26:23;22.10;94.70
16408;DHT22;8313;49.894;8.084;2023-07-20T08:28:49;22.20;94.90
16408;DHT22;8313;49.894;8.084;2023-07-20T08:31:14;22.10;94.80
16408;DHT22;8313;49.894;8.084;2023-07-20T08:33:40;22.10;94.70
16408;DHT22;8313;49.894;8.084;2023-07-20T08:36:06;22.10;94.50
16408;DHT22;8313;49.894;8.084;2023-07-20T08:38:32;22.10;94.30
16408;DHT22;8313;49.894;8.084;2023-07-20T08:40:57;22.10;94.00
16408;DHT22;8313;49.894;8.084;2023-07-20T08:43:25;22.10;94.00
16408;DHT22;8313;49.894;8.084;2023-07-20T08:45:52;22.20;94.40
16408;DHT22;8313;49.894;8.084;2023-07-20T08:48:20;22.50;94.50
16408;DHT22;8313;49.894;8.084;2023-07-20T08:50:49;22.60;94.20
16408;DHT22;8313;49.894;8.084;2023-07-20T08:53:16;22.80;94.20
16408;DHT22;8313;49.894;8.084;2023-07-20T08:55:44;22.80;94.00
16408;DHT22;8313;49.894;8.084;2023-07-20T08:58:12;23.00;93.70
16408;DHT22;8313;49.894;8.084;2023-07-20T09:00:38;22.90;93.50
16408;DHT22;8313;49.894;8.084;2023-07-20T09:03:04;23.00;93.60
16408;DHT22;8313;49.894;8.084;2023-07-20T09:05:30;23.10;93.50
16408;DHT22;8313;49.894;8.084;2023-07-20T09:07:56;23.30;93.40
16408;DHT22;8313;49.894;8.084;2023-07-20T09:10:24;23.20;93.00
16408;DHT22;8313;49.894;8.084;2023-07-20T09:12:50;23.30;93.20
16408;DHT22;8313;49.894;8.084;2023-07-20T09:15:20;23.40;93.10
16408;DHT22;8313;49.894;8.084;2023-07-20T09:17:46;23.40;93.00
16408;DHT22;8313;49.894;8.084;2023-07-20T09:20:15;23.40;92.50
16408;DHT22;8313;49.894;8.084;2023-07-20T09:22:42;23.50;92.60
16408;DHT22;8313;49.894;8.084;2023-07-20T09:25:12;23.70;92.30
16408;DHT22;8313;49.894;8.084;2023-07-20T09:27:41;23.80;92.50
16408;DHT22;8313;49.894;8.084;2023-07-20T09:30:07;23.90;92.20
16408;DHT22;8313;49.894;8.084;2023-07-20T09:32:44;24.00;92.10
16408;DHT22;8313;49.894;8.084;2023-07-20T09:37:46;24.00;91.30
16408;DHT22;8313;49.894;8.084;2023-07-20T09:40:15;24.00;91.40
16408;DHT22;8313;49.894;8.084;2023-07-20T09:42:43;23.90;91.30
16408;DHT22;8313;49.894;8.084;2023-07-20T09:45:09;23.70;91.20
16408;DHT22;8313;49.894;8.084;2023-07-20T09:47:39;23.70;91.40
16408;DHT22;8313;49.894;8.084;2023-07-20T09:50:06;23.80;91.20
16408;DHT22;8313;49.894;8.084;2023-07-20T09:52:39;23.60;90.90
16408;DHT22;8313;49.894;8.084;2023-07-20T09:55:08;23.70;91.30
16408;DHT22;8313;49.894;8.084;2023-07-20T09:57:35;23.70;91.20
16408;DHT22;8313;49.894;8.084;2023-07-20T10:00:03;23.70;91.10
16408;DHT22;8313;49.894;8.084;2023-07-20T10:02:37;23.70;91.10
16408;DHT22;8313;49.894;8.084;2023-07-20T10:05:08;23.70;91.20
16408;DHT22;8313;49.894;8.084;2023-07-20T10:07:36;23.80;90.60
16408;DHT22;8313;49.894;8.084;2023-07-20T10:10:06;23.90;90.70
16408;DHT22;8313;49.894;8.084;2023-07-20T10:12:37;23.80;90.70
16408;DHT22;8313;49.894;8.084;2023-07-20T10:15:23;23.80;90.70
16408;DHT22;8313;49.894;8.084;2023-07-20T10:18:15;23.80;90.80
16408;DHT22;8313;49.894;8.084;2023-07-20T10:20:43;23.80;90.70
16408;DHT22;8313;49.894;8.084;2023-07-20T10:23:10;24.00;90.30
16408;DHT22;8313;49.894;8.084;2023-07-20T10:25:37;24.00;90.40
16408;DHT22;8313;49.894;8.084;2023-07-20T10:28:07;23.80;90.50
16408;DHT22;8313;49.894;8.084;2023-07-20T10:30:36;23.80;90.40
16408;DHT22;8313;49.894;8.084;2023-07-20T10:33:03;23.80;90.30
16408;DHT22;8313;49.894;8.084;2023-07-20T10:35:30;23.80;90.50
16408;DHT22;8313;49.894;8.084;2023-07-20T10:38:03;23.90;90.30
16408;DHT22;8313;49.894;8.084;2023-07-20T10:40:38;24.10;90.40
16408;DHT22;8313;49.894;8.084;2023-07-20T10:43:08;24.00;90.20
16408;DHT22;8313;49.894;8.084;2023-07-20T10:45:41;24.10;90.00
16408;DHT22;8313;49.894;8.084;2023-07-20T10:48:18;24.10;89.90
16408;DHT22;8313;49.894;8.084;2023-07-20T10:50:45;24.10;89.40
16408;DHT22;8313;49.894;8.084;2023-07-20T10:53:17;24.10;88.90
16408;DHT22;8313;49.894;8.084;2023-07-20T10:55:43;24.20;88.00
16408;DHT22;8313;49.894;8.084;2023-07-20T10:58:19;24.20;88.00
16408;DHT22;8313;49.894;8.084;2023-07-20T11:01:03;24.20;88.10
16408;DHT22;8313;49.894;8.084;2023-07-20T11:03:33;24.20;88.10
16408;DHT22;8313;49.894;8.084;2023-07-20T11:05:59;24.30;88.40
16408;DHT22;8313;49.894;8.084;2023-07-20T11:08:40;24.20;88.20
16408;DHT22;8313;49.894;8.084;2023-07-20T11:14:01;24.20;88.20
16408;DHT22;8313;49.894;8.084;2023-07-20T11:16:38;24.20;87.70
16408;DHT22;8313;49.894;8.084;2023-07-20T11:19:04;24.10;87.30
16408;DHT22;8313;49.894;8.084;2023-07-20T11:21:38;24.00;87.50
16408;DHT22;8313;49.894;8.084;2023-07-20T11:24:05;24.10;87.60
16408;DHT22;8313;49.894;8.084;2023-07-20T11:26:43;24.20;87.10
16408;DHT22;8313;49.894;8.084;2023-07-20T11:29:09;24.20;87.20
16408;DHT22;8313;49.894;8.084;2023-07-20T11:31:40;24.20;87.20
16408;DHT22;8313;49.894;8.084;2023-07-20T11:34:09;24.30;87.00
16408;DHT22;8313;49.894;8.084;2023-07-20T11:36:35;24.10;86.60
16408;DHT22;8313;49.894;8.084;2023-07-20T11:39:01;24.30;87.10
16408;DHT22;8313;49.894;8.084;2023-07-20T11:41:26;24.40;86.70
16408;DHT22;8313;49.894;8.084;2023-07-20T11:43:53;24.50;85.70
16408;DHT22;8313;49.894;8.084;2023-07-20T11:46:19;24.50;85.10
16408;DHT22;8313;49.894;8.084;2023-07-20T11:48:45;24.60;85.70
16408;DHT22;8313;49.894;8.084;2023-07-20T11:51:15;24.70;85.60
16408;DHT22;8313;49.894;8.084;2023-07-20T11:53:42;24.70;85.40
16408;DHT22;8313;49.894;8.084;2023-07-20T11:56:08;24.70;85.00
16408;DHT22;8313;49.894;8.084;2023-07-20T11:58:34;24.60;84.90
16408;DHT22;8313;49.894;8.084;2023-07-20T12:01:00;24.70;85.10
16408;DHT22;8313;49.894;8.084;2023-07-20T12:03:25;24.70;85.50
16408;DHT22;8313;49.894;8.084;2023-07-20T12:05:52;24.70;85.20
16408;DHT22;8313;49.894;8.084;2023-07-20T12:08:17;24.70;85.00
16408;DHT22;8313;49.894;8.084;2023-07-20T12:10:43;24.70;84.80
16408;DHT22;8313;49.894;8.084;2023-07-20T12:13:10;24.60;84.30
16408;DHT22;8313;49.894;8.084;2023-07-20T12:15:37;24.60;84.20
16408;DHT22;8313;49.894;8.084;2023-07-20T12:18:03;24.60;84.20
16408;DHT22;8313;49.894;8.084;2023-07-20T12:20:34;24.60;83.50
16408;DHT22;8313;49.894;8.084;2023-07-20T12:23:12;24.60;83.00
16408;DHT22;8313;49.894;8.084;2023-07-20T12:25:38;24.60;83.10
16408;DHT22;8313;49.894;8.084;2023-07-20T12:28:06;24.60;82.80
16408;DHT22;8313;49.894;8.084;2023-07-20T12:30:32;24.70;83.30
16408;DHT22;8313;49.894;8.084;2023-07-20T12:32:58;24.80;83.30
16408;DHT22;8313;49.894;8.084;2023-07-20T12:35:24;24.80;82.40
16408;DHT22;8313;49.894;8.084;2023-07-20T12:37:50;24.90;83.00
16408;DHT22;8313;49.894;8.084;2023-07-20T12:40:17;24.90;82.40
16408;DHT22;8313;49.894;8.084;2023-07-20T12:42:43;25.00;82.50
16408;DHT22;8313;49.894;8.084;2023-07-20T12:45:08;25.00;82.30
16408;DHT22;8313;49.894;8.084;2023-07-20T12:47:34;25.20;81.70
16408;DHT22;8313;49.894;8.084;2023-07-20T12:50:00;25.20;80.60
16408;DHT22;8313;49.894;8.084;2023-07-20T12:52:25;25.30;80.50
16408;DHT22;8313;49.894;8.084;2023-07-20T12:54:51;25.30;81.20
16408;DHT22;8313;49.894;8.084;2023-07-20T12:57:17;25.30;80.90
16408;DHT22;8313;49.894;8.084;2023-07-20T12:59:43;25.40;80.80
16408;DHT22;8313;49.894;8.084;2023-07-20T13:02:09;25.50;80.20
16408;DHT22;8313;49.894;8.084;2023-07-20T13:04:34;25.50;79.70
16408;DHT22;8313;49.894;8.084;2023-07-20T13:07:00;25.60;80.20
16408;DHT22;8313;49.894;8.084;2023-07-20T13:09:25;25.60;80.50
16408;DHT22;8313;49.894;8.084;2023-07-20T13:11:51;25.80;80.40
16408;DHT22;8313;49.894;8.084;2023-07-20T13:14:18;26.00;79.80
16408;DHT22;8313;49.894;8.084;2023-07-20T13:16:43;26.20;78.90
16408;DHT22;8313;49.894;8.084;2023-07-20T13:19:10;26.40;77.80
16408;DHT22;8313;49.894;8.084;2023-07-20T13:21:35;26.20;77.90
16408;DHT22;8313;49.894;8.084;2023-07-20T13:24:01;26.20;78.30
16408;DHT22;8313;49.894;8.084;2023-07-20T13:26:27;26.20;77.70
16408;DHT22;8313;49.894;8.084;2023-07-20T13:28:53;26.20;77.70
16408;DHT22;8313;49.894;8.084;2023-07-20T13:31:19;26.30;78.30
16408;DHT22;8313;49.894;8.084;2023-07-20T13:33:46;26.30;79.20
16408;DHT22;8313;49.894;8.084;2023-07-20T13:36:11;26.30;78.30
16408;DHT22;8313;49.894;8.084;2023-07-20T13:38:37;26.40;77.20
16408;DHT22;8313;49.894;8.084;2023-07-20T13:41:03;26.40;76.50
16408;DHT22;8313;49.894;8.084;2023-07-20T13:43:28;26.50;75.00
16408;DHT22;8313;49.894;8.084;2023-07-20T13:45:54;26.60;76.40
16408;DHT22;8313;49.894;8.084;2023-07-20T13:48:20;26.70;75.80
16408;DHT22;8313;49.894;8.084;2023-07-20T13:50:48;26.70;74.60
16408;DHT22;8313;49.894;8.084;2023-07-20T13:53:14;26.70;75.30
16408;DHT22;8313;49.894;8.084;2023-07-20T13:55:42;26.80;74.10
16408;DHT22;8313;49.894;8.084;2023-07-20T13:58:07;26.80;74.80
16408;DHT22;8313;49.894;8.084;2023-07-20T14:00:35;26.80;74.10
16408;DHT22;8313;49.894;8.084;2023-07-20T14:03:01;26.80;72.60
16408;DHT22;8313;49.894;8.084;2023-07-20T14:05:27;26.80;71.60
16408;DHT22;8313;49.894;8.084;2023-07-20T14:07:53;26.70;70.50
16408;DHT22;8313;49.894;8.084;2023-07-20T14:10:19;26.50;70.60
16408;DHT22;8313;49.894;8.084;2023-07-20T14:12:45;26.70;70.70
16408;DHT22;8313;49.894;8.084;2023-07-20T14:15:11;27.00;68.20
16408;DHT22;8313;49.894;8.084;2023-07-20T14:17:37;27.80;69.10
16408;DHT22;8313;49.894;8.084;2023-07-20T14:20:03;27.90;67.70
16408;DHT22;8313;49.894;8.084;2023-07-20T14:22:31;27.90;68.70
16408;DHT22;8313;49.894;8.084;2023-07-20T14:24:57;27.70;68.20
16408;DHT22;8313;49.894;8.084;2023-07-20T14:27:24;27.60;67.20
16408;DHT22;8313;49.894;8.084;2023-07-20T14:29:49;27.40;67.00
16408;DHT22;8313;49.894;8.084;2023-07-20T14:32:15;27.30;67.60
16408;DHT22;8313;49.894;8.084;2023-07-20T14:34:41;27.20;65.80
16408;DHT22;8313;49.894;8.084;2023-07-20T14:37:07;27.20;65.60
16408;DHT22;8313;49.894;8.084;2023-07-20T14:39:32;27.10;67.80
16408;DHT22;8313;49.894;8.084;2023-07-20T14:41:58;26.70;68.20
16408;DHT22;8313;49.894;8.084;2023-07-20T14:44:24;26.50;69.00
16408;DHT22;8313;49.894;8.084;2023-07-20T14:46:50;26.30;69.90
16408;DHT22;8313;49.894;8.084;2023-07-20T14:49:16;26.40;69.60
16408;DHT22;8313;49.894;8.084;2023-07-20T14:51:43;26.30;69.70
16408;DHT22;8313;49.894;8.084;2023-07-20T14:54:12;26.40;69.50
16408;DHT22;8313;49.894;8.084;2023-07-20T14:56:38;26.30;69.40
16408;DHT22;8313;49.894;8.084;2023-07-20T14:59:04;26.00;70.10
16408;DHT22;8313;49.894;8.084;2023-07-20T15:01:31;25.80;70.60
16408;DHT22;8313;49.894;8.084;2023-07-20T15:03:57;25.80;70.60
16408;DHT22;8313;49.894;8.084;2023-07-20T15:06:23;25.90;70.40
16408;DHT22;8313;49.894;8.084;2023-07-20T15:08:49;26.10;70.10
16408;DHT22;8313;49.894;8.084;2023-07-20T15:11:14;25.90;69.30
16408;DHT22;8313;49.894;8.084;2023-07-20T15:13:40;26.00;69.20
16408;DHT22;8313;49.894;8.084;2023-07-20T15:16:08;26.00;69.50
16408;DHT22;8313;49.894;8.084;2023-07-20T15:18:36;26.00;68.30
16408;DHT22;8313;49.894;8.084;2023-07-20T15:21:02;26.20;68.80
16408;DHT22;8313;49.894;8.084;2023-07-20T15:23:27;26.00;67.60
16408;DHT22;8313;49.894;8.084;2023-07-20T15:25:53;26.10;68.80
16408;DHT22;8313;49.894;8.084;2023-07-20T15:28:19;26.30;67.50
16408;DHT22;8313;49.894;8.084;2023-07-20T15:30:44;26.40;66.60
16408;DHT22;8313;49.894;8.084;2023-07-20T15:33:10;26.70;66.50
16408;DHT22;8313;49.894;8.084;2023-07-20T15:35:36;26.70;67.10
16408;DHT22;8313;49.894;8.084;2023-07-20T15:38:02;26.50;67.60
16408;DHT22;8313;49.894;8.084;2023-07-20T15:40:27;26.30;68.10
16408;DHT22;8313;49.894;8.084;2023-07-20T15:42:53;26.30;67.50
16408;DHT22;8313;49.894;8.084;2023-07-20T15:45:19;26.30;67.50
16408;DHT22;8313;49.894;8.084;2023-07-20T15:47:45;26.30;67.60
16408;DHT22;8313;49.894;8.084;2023-07-20T15:50:11;26.10;67.20
16408;DHT22;8313;49.894;8.084;2023-07-20T15:52:36;26.10;67.20
16408;DHT22;8313;49.894;8.084;2023-07-20T15:55:02;26.00;67.30
16408;DHT22;8313;49.894;8.084;2023-07-20T15:57:30;25.90;67.60